Main page
METAR-TAF:

METAR-TAF

Airports :

Caracas, Venezuela

Simón Bolívar International Airport

latitude: 10-36N, longitude: 066-59W, elevation: 43 m

Current weather observation

The report was made 58 minutes ago, at 16:00 UTC
Wind 3 kt from the East/Northeast
Temperature 30°C
Humidity 55%
Pressure 1012 hPa
Visibility 10 km or more
Broken clouds at a height of 1600 ft

METAR: SVMI 261600Z 07003KT 9999 BKN016 30/20 Q1012

Time: 12:58 (16:58 UTC)

Forecast

Forecast valid from 26 at 12 UTC to 27 at 12 UTC
Wind kt from the North
Visibility 10 km or more
Scattered clouds at a height of 1600 ft
From 26 at 1400 UTC
Wind 3 kt from the North/Northeast
Visibility 10 km or more
Few clouds at a height of 1600 ft
Scattered clouds at a height of 10000 ft
Becoming
from 26 at 18 UTC to 26 at 22 UTC
Wind 12 kt from the Northeast
Scattered clouds at a height of 1600 ft

TAF: SVMI 2612/2712 00000KT 9999 SCT016 TX33/18Z TN25/08Z FM261400 02003KT 9999 FEW016 SCT100 BECMG 2618/2622 05012KT SCT016

Weather observations and forecasts of more than 4000 airports (METAR and TAF reports).

The available stations are represented by yellow and red dots on the map.

Hover mouse over dot to see the name of the station.

Then click to see weather observations and forecasts.

To change the map : click on the green buttons with a black cross to zoom in, on the green button with a dash to zoom out, or on the green arrows for adjacent maps.


METAR-TAF: